createdAt,value
2023-04-14T07:57:31.917Z,128.00
2023-04-14T07:57:42.000Z,531.00
2023-04-14T07:57:52.145Z,735.00
2023-04-14T07:58:02.270Z,759.00
2023-04-14T07:58:15.317Z,749.00
2023-04-14T07:58:24.312Z,736.00
2023-04-14T07:58:32.670Z,723.00
2023-04-14T07:58:42.743Z,702.00
2023-04-14T07:58:52.798Z,722.00
2023-04-14T07:59:03.256Z,700.00
2023-04-14T07:59:12.929Z,709.00
2023-04-14T07:59:23.028Z,728.00
2023-04-14T07:59:33.121Z,721.00
2023-04-14T07:59:43.180Z,725.00
2023-04-14T07:59:53.248Z,739.00
2023-04-14T08:00:03.321Z,728.00
2023-04-14T08:00:13.425Z,719.00
2023-04-14T08:00:23.544Z,722.00
2023-04-14T08:00:33.636Z,729.00
2023-04-14T08:00:43.728Z,721.00
2023-04-14T08:00:53.800Z,721.00
2023-04-14T08:01:03.879Z,718.00
2023-04-14T08:01:13.978Z,721.00
2023-04-14T08:01:24.042Z,723.00
2023-04-14T08:01:34.112Z,726.00
2023-04-14T08:01:44.282Z,718.00
2023-04-14T08:01:54.276Z,711.00
2023-04-14T08:02:04.345Z,735.00
2023-04-14T08:02:14.306Z,724.00
2023-04-14T08:02:24.494Z,691.00
2023-04-14T08:02:34.643Z,713.00
2023-04-14T08:02:44.848Z,754.00
2023-04-14T08:02:54.784Z,773.00
2023-04-14T08:03:04.860Z,746.00
2023-04-14T08:03:14.943Z,770.00
2023-04-14T08:03:25.073Z,796.00
2023-04-14T08:03:35.147Z,774.00
2023-04-14T08:03:45.730Z,775.00
2023-04-14T08:03:55.603Z,763.00
2023-04-14T08:04:05.565Z,760.00
2023-04-14T08:04:15.546Z,805.00
2023-04-14T08:04:25.581Z,789.00
2023-04-14T08:04:35.657Z,796.00
2023-04-14T08:04:45.697Z,788.00
2023-04-14T08:04:55.828Z,791.00
2023-04-14T08:05:05.883Z,806.00
2023-04-14T08:05:16.073Z,808.00
2023-04-14T08:05:26.181Z,809.00
2023-04-14T08:05:36.215Z,809.00
2023-04-14T08:05:46.370Z,813.00
2023-04-14T08:05:56.299Z,810.00
2023-04-14T08:06:06.452Z,813.00
2023-04-14T08:06:16.506Z,831.00
2023-04-14T08:06:26.581Z,812.00
2023-04-14T08:06:36.653Z,820.00
2023-04-14T08:06:46.730Z,851.00
2023-04-14T08:06:56.809Z,816.00
2023-04-14T08:07:06.894Z,821.00
2023-04-14T08:07:16.952Z,815.00
2023-04-14T08:07:27.023Z,826.00
2023-04-14T08:07:37.211Z,823.00
2023-04-14T08:07:47.328Z,820.00
2023-04-14T08:07:57.358Z,858.00
2023-04-14T08:08:07.418Z,825.00
2023-04-14T08:08:17.484Z,835.00
2023-04-14T08:08:27.617Z,827.00
2023-04-14T08:08:37.716Z,861.00
2023-04-14T08:08:47.772Z,827.00
2023-04-14T08:08:57.837Z,833.00
2023-04-14T08:09:07.892Z,834.00
2023-04-14T08:09:18.030Z,831.00
2023-04-14T08:09:28.119Z,843.00
2023-04-14T08:09:38.138Z,858.00
2023-04-14T08:09:48.218Z,841.00
2023-04-14T08:09:58.282Z,839.00
2023-04-14T08:10:08.384Z,854.00
2023-04-14T08:10:18.487Z,837.00
2023-04-14T08:10:28.517Z,836.00
2023-04-14T08:10:38.661Z,830.00
2023-04-14T08:10:48.716Z,821.00
2023-04-14T08:10:58.797Z,819.00
2023-04-14T08:11:08.844Z,814.00
2023-04-14T08:11:18.897Z,820.00
2023-04-14T08:11:28.969Z,811.00
2023-04-14T08:11:39.009Z,824.00
2023-04-14T08:11:49.065Z,805.00
2023-04-14T08:11:59.165Z,796.00
2023-04-14T08:12:09.243Z,805.00
2023-04-14T08:12:19.307Z,808.00
2023-04-14T08:12:29.362Z,808.00
2023-04-14T08:12:39.438Z,832.00
2023-04-14T08:12:49.592Z,814.00
2023-04-14T08:13:01.563Z,813.00
2023-04-14T08:13:09.840Z,817.00
2023-04-14T08:13:19.858Z,859.00
2023-04-14T08:13:29.926Z,829.00
2023-04-14T08:13:39.944Z,830.00
2023-04-14T08:13:50.018Z,846.00
2023-04-14T08:14:00.069Z,845.00
2023-04-14T08:14:10.172Z,851.00
2023-04-14T08:14:20.227Z,861.00
2023-04-14T08:14:30.297Z,848.00
2023-04-14T08:14:40.376Z,854.00
2023-04-14T08:14:50.454Z,873.00
2023-04-14T08:15:00.523Z,858.00
2023-04-14T08:15:10.654Z,863.00
2023-04-14T08:15:20.700Z,862.00
2023-04-14T08:15:30.796Z,867.00
2023-04-14T08:15:40.884Z,866.00
2023-04-14T08:15:51.007Z,871.00
2023-04-14T08:16:01.122Z,898.00
2023-04-14T08:16:11.206Z,882.00
2023-04-14T08:16:21.281Z,892.00
2023-04-14T08:16:31.339Z,909.00
2023-04-14T08:16:41.508Z,899.00
2023-04-14T08:16:51.601Z,896.00
2023-04-14T08:17:01.623Z,895.00
2023-04-14T08:17:11.677Z,893.00
2023-04-14T08:17:21.741Z,892.00
2023-04-14T08:17:31.829Z,889.00
2023-04-14T08:17:41.966Z,889.00
2023-04-14T08:17:52.105Z,882.00
2023-04-14T08:18:02.046Z,874.00
2023-04-14T08:18:12.079Z,869.00
2023-04-14T08:18:22.750Z,866.00
2023-04-14T08:18:32.293Z,851.00
2023-04-14T08:18:42.366Z,874.00
2023-04-14T08:18:53.181Z,860.00
2023-04-14T08:19:02.747Z,859.00
2023-04-14T08:19:12.716Z,854.00
2023-04-14T08:19:22.773Z,865.00
2023-04-14T08:19:32.831Z,856.00
2023-04-14T08:19:42.885Z,852.00
2023-04-14T08:19:53.000Z,852.00
2023-04-14T08:20:03.102Z,834.00
2023-04-14T08:20:13.153Z,837.00
2023-04-14T08:20:23.225Z,860.00
2023-04-14T08:20:33.277Z,822.00
2023-04-14T08:20:43.329Z,824.00
2023-04-14T08:20:53.391Z,836.00
2023-04-14T08:21:03.515Z,817.00
2023-04-14T08:21:13.546Z,814.00
2023-04-14T08:21:23.693Z,812.00
2023-04-14T08:21:33.771Z,812.00
2023-04-14T08:21:43.824Z,809.00
2023-04-14T08:21:54.033Z,811.00
2023-04-14T08:22:03.925Z,833.00
2023-04-14T08:22:14.035Z,810.00
2023-04-14T08:22:24.102Z,801.00
2023-04-14T08:22:34.183Z,790.00
2023-04-14T08:22:44.284Z,790.00
2023-04-14T08:22:54.332Z,785.00
2023-04-14T08:23:04.393Z,788.00
2023-04-14T08:23:14.458Z,785.00
2023-04-14T08:23:24.521Z,784.00
2023-04-14T08:23:34.621Z,785.00
2023-04-14T08:23:44.673Z,783.00
2023-04-14T08:23:54.817Z,784.00
2023-04-14T08:24:04.883Z,797.00
2023-04-14T08:24:14.955Z,787.00
2023-04-14T08:24:25.061Z,787.00
2023-04-14T08:24:37.608Z,810.00
2023-04-14T08:24:45.156Z,794.00
2023-04-14T08:24:55.240Z,790.00
2023-04-14T08:25:05.394Z,784.00
2023-04-14T08:25:15.534Z,805.00
2023-04-14T08:25:25.522Z,806.00
2023-04-14T08:25:35.633Z,810.00
2023-04-14T08:25:45.771Z,810.00
2023-04-14T08:25:55.864Z,814.00
2023-04-14T08:26:05.943Z,815.00
2023-04-14T08:26:16.085Z,830.00
2023-04-14T08:26:26.062Z,885.00
2023-04-14T08:26:36.149Z,852.00
2023-04-14T08:26:46.252Z,852.00
2023-04-14T08:26:56.293Z,860.00
2023-04-14T08:27:06.366Z,859.00
2023-04-14T08:27:16.432Z,861.00
2023-04-14T08:27:26.519Z,870.00
2023-04-14T08:27:36.597Z,868.00
2023-04-14T08:27:46.718Z,882.00
2023-04-14T08:27:56.784Z,915.00
2023-04-14T08:28:06.839Z,905.00
2023-04-14T08:28:16.940Z,919.00
2023-04-14T08:28:27.002Z,953.00
2023-04-14T08:28:37.052Z,952.00
2023-04-14T08:28:47.111Z,959.00
2023-04-14T08:28:57.164Z,960.00
2023-04-14T08:29:07.228Z,964.00
2023-04-14T08:29:17.240Z,971.00
2023-04-14T08:29:27.294Z,972.00
2023-04-14T08:29:37.359Z,969.00
2023-04-14T08:29:47.412Z,967.00
2023-04-14T08:29:57.451Z,973.00
2023-04-14T08:30:08.900Z,971.00
2023-04-14T08:30:17.639Z,967.00
2023-04-14T08:30:27.693Z,971.00
2023-04-14T08:30:37.753Z,969.00
2023-04-14T08:30:47.816Z,980.00
2023-04-14T08:30:57.880Z,967.00
2023-04-14T08:31:07.948Z,963.00
2023-04-14T08:31:18.071Z,976.00
2023-04-14T08:31:28.050Z,963.00
2023-04-14T08:31:38.221Z,961.00
2023-04-14T08:31:48.295Z,959.00
2023-04-14T08:31:58.344Z,966.00
2023-04-14T08:32:08.479Z,966.00
2023-04-14T08:32:18.556Z,963.00
2023-04-14T08:32:28.843Z,959.00
2023-04-14T08:32:38.626Z,992.00
2023-04-14T08:32:48.710Z,982.00
2023-04-14T08:32:59.170Z,955.00
2023-04-14T08:33:08.893Z,930.00
2023-04-14T08:33:18.973Z,944.00
2023-04-14T08:33:29.036Z,959.00
2023-04-14T08:33:39.083Z,953.00
2023-04-14T08:33:49.260Z,966.00
2023-04-14T08:33:59.292Z,999.00
2023-04-14T08:34:09.344Z,959.00
2023-04-14T08:34:25.418Z,958.00
2023-04-14T08:34:30.427Z,985.00
2023-04-14T08:34:40.544Z,953.00
2023-04-14T08:35:35.245Z,977.00
2023-04-14T08:35:35.389Z,990.00
2023-04-14T08:35:35.459Z,973.00
2023-04-14T08:35:39.343Z,1009.00
2023-04-14T08:35:41.597Z,1013.00
2023-04-14T08:35:46.219Z,1011.00
2023-04-14T08:35:59.084Z,1010.00
2023-04-14T08:36:07.303Z,989.00
2023-04-14T08:36:17.354Z,987.00
2023-04-14T08:36:27.401Z,983.00
2023-04-14T08:36:37.458Z,982.00
2023-04-14T08:36:47.561Z,980.00
2023-04-14T08:36:57.603Z,979.00
2023-04-14T08:37:07.673Z,962.00
2023-04-14T08:37:17.754Z,967.00
2023-04-14T08:37:27.816Z,960.00
2023-04-14T08:37:37.882Z,984.00
2023-04-14T08:37:47.856Z,966.00
2023-04-14T08:37:57.911Z,968.00
2023-04-14T08:38:07.968Z,993.00
2023-04-14T08:38:17.999Z,1005.00
2023-04-14T08:38:28.135Z,1021.00
2023-04-14T08:38:38.211Z,1035.00
2023-04-14T08:38:48.234Z,1052.00
2023-04-14T08:38:58.763Z,1055.00
2023-04-14T08:39:08.425Z,1058.00
2023-04-14T08:39:18.473Z,1069.00
2023-04-14T08:39:28.552Z,1080.00
2023-04-14T08:39:38.623Z,1091.00
2023-04-14T08:39:48.715Z,1104.00
2023-04-14T08:39:58.787Z,1106.00
2023-04-14T08:40:08.858Z,1112.00
2023-04-14T08:40:18.921Z,1105.00
2023-04-14T08:40:28.995Z,1104.00
2023-04-14T08:40:39.065Z,1115.00
2023-04-14T08:40:49.222Z,1116.00
2023-04-14T08:40:59.287Z,1130.00
2023-04-14T08:41:09.363Z,1131.00
2023-04-14T08:41:19.437Z,1124.00
2023-04-14T08:41:29.519Z,1119.00
2023-04-14T08:41:39.612Z,1117.00
2023-04-14T08:41:49.671Z,1118.00
2023-04-14T08:41:59.761Z,1114.00
2023-04-14T08:42:09.846Z,1108.00
2023-04-14T08:42:19.902Z,1117.00
2023-04-14T08:42:29.971Z,1114.00
2023-04-14T08:42:39.986Z,1116.00
2023-04-14T08:42:50.127Z,1135.00
2023-04-14T08:43:00.234Z,1130.00
2023-04-14T08:43:11.299Z,1126.00
2023-04-14T08:43:20.184Z,1113.00
2023-04-14T08:43:30.242Z,1121.00
2023-04-14T08:43:40.353Z,1152.00
2023-04-14T08:43:50.429Z,1120.00
2023-04-14T08:44:00.489Z,1113.00
2023-04-14T08:44:10.546Z,1125.00
2023-04-14T08:44:20.606Z,1110.00
2023-04-14T08:44:30.686Z,1110.00
2023-04-14T08:44:40.790Z,1116.00
2023-04-14T08:44:50.878Z,1110.00
2023-04-14T08:45:00.928Z,1112.00
2023-04-14T08:45:11.001Z,1140.00
2023-04-14T08:45:21.078Z,1117.00
2023-04-14T08:45:31.370Z,1124.00
2023-04-14T08:45:41.380Z,1122.00
2023-04-14T08:45:51.532Z,1130.00
2023-04-14T08:46:01.607Z,1133.00
2023-04-14T08:46:11.705Z,1133.00
2023-04-14T08:46:22.398Z,1137.00
2023-04-14T08:46:31.858Z,1137.00
2023-04-14T08:46:41.742Z,1136.00
2023-04-14T08:46:51.811Z,1164.00
2023-04-14T08:47:01.920Z,1137.00
2023-04-14T08:47:11.993Z,1138.00
2023-04-14T08:47:32.121Z,1131.00
2023-04-14T08:47:42.230Z,1132.00
2023-04-14T08:47:52.367Z,1119.00
2023-04-14T08:48:02.490Z,1115.00
2023-04-14T08:48:12.407Z,1114.00
2023-04-14T08:48:25.027Z,1119.00
2023-04-14T08:48:32.609Z,1126.00
2023-04-14T08:48:42.503Z,1132.00
2023-04-14T08:48:52.606Z,1136.00
2023-04-14T08:49:02.933Z,1135.00
2023-04-14T08:49:12.751Z,1128.00
2023-04-14T08:49:22.835Z,1118.00
2023-04-14T08:49:32.915Z,1116.00
2023-04-14T08:49:42.996Z,1114.00
2023-04-14T08:49:53.063Z,1124.00
2023-04-14T08:50:03.139Z,1113.00
2023-04-14T08:50:13.204Z,1111.00
2023-04-14T08:50:23.364Z,1128.00
2023-04-14T08:50:33.412Z,1111.00
2023-04-14T08:50:43.539Z,1110.00
2023-04-14T08:50:53.623Z,1111.00
2023-04-14T08:51:03.685Z,1111.00
2023-04-14T08:51:13.731Z,1116.00
2023-04-14T08:51:23.821Z,1118.00
2023-04-14T08:51:33.933Z,1141.00
2023-04-14T08:51:44.037Z,1138.00
2023-04-14T08:51:54.133Z,1133.00
2023-04-14T08:52:04.213Z,1131.00
2023-04-14T08:52:14.279Z,1127.00
2023-04-14T08:52:24.352Z,1117.00
2023-04-14T08:52:34.415Z,1110.00
2023-04-14T08:52:44.552Z,1114.00
2023-04-14T08:52:54.538Z,1116.00
2023-04-14T08:53:04.604Z,1119.00
2023-04-14T08:53:14.671Z,1129.00
2023-04-14T08:53:24.747Z,1132.00
2023-04-14T08:53:34.850Z,1132.00
2023-04-14T08:53:44.992Z,1153.00
2023-04-14T08:53:55.013Z,1139.00
2023-04-14T08:54:05.156Z,1137.00
2023-04-14T08:54:15.187Z,1160.00
2023-04-14T08:54:25.271Z,1125.00
2023-04-14T08:54:35.273Z,1119.00
2023-04-14T08:54:45.363Z,1115.00
2023-04-14T08:54:55.430Z,1117.00
2023-04-14T08:55:05.502Z,1132.00
2023-04-14T08:55:15.580Z,1143.00
2023-04-14T08:55:25.657Z,1119.00
2023-04-14T08:55:35.728Z,1106.00
2023-04-14T08:55:45.789Z,1111.00
2023-04-14T08:55:57.931Z,1104.00
2023-04-14T08:56:05.943Z,1102.00
2023-04-14T08:56:15.987Z,1103.00
2023-04-14T08:56:26.037Z,1102.00
2023-04-14T08:56:36.099Z,1104.00
2023-04-14T08:56:46.166Z,1103.00
2023-04-14T08:56:56.234Z,1104.00
2023-04-14T08:57:06.316Z,1117.00
2023-04-14T08:57:16.383Z,1118.00
2023-04-14T08:57:26.472Z,1122.00
2023-04-14T08:57:36.492Z,1127.00
2023-04-14T08:57:46.634Z,1136.00
2023-04-14T08:57:56.754Z,1122.00
2023-04-14T08:58:06.818Z,1117.00
2023-04-14T08:58:16.910Z,1117.00
2023-04-14T08:58:26.975Z,1123.00
2023-04-14T08:58:37.065Z,1128.00
2023-04-14T08:58:47.348Z,1124.00
2023-04-14T08:58:57.184Z,1106.00
2023-04-14T08:59:07.306Z,1122.00
2023-04-14T08:59:17.372Z,1141.00
2023-04-14T08:59:27.472Z,1180.00
2023-04-14T08:59:37.548Z,1142.00
2023-04-14T08:59:47.600Z,1136.00
2023-04-14T08:59:57.680Z,1130.00
2023-04-14T09:00:07.752Z,1124.00
2023-04-14T09:00:17.804Z,1147.00
2023-04-14T09:00:27.955Z,1128.00
2023-04-14T09:00:38.019Z,1113.00
2023-04-14T09:00:48.110Z,1104.00
2023-04-14T09:00:58.262Z,1086.00
2023-04-14T09:01:08.343Z,1076.00
2023-04-14T09:01:18.416Z,1066.00
2023-04-14T09:01:28.568Z,1057.00
2023-04-14T09:01:38.615Z,1058.00
2023-04-14T09:01:48.688Z,1068.00
2023-04-14T09:01:59.012Z,1055.00
2023-04-14T09:02:08.894Z,1050.00
2023-04-14T09:02:18.984Z,1105.00
2023-04-14T09:02:29.017Z,1067.00
2023-04-14T09:02:39.205Z,1065.00
2023-04-14T09:02:49.410Z,1100.00
2023-04-14T09:02:59.331Z,1087.00
2023-04-14T09:03:09.764Z,1067.00
2023-04-14T09:03:19.540Z,1064.00
2023-04-14T09:03:29.663Z,1109.00
2023-04-14T09:03:39.628Z,1076.00
2023-04-14T09:03:49.824Z,1039.00
2023-04-14T09:04:00.212Z,1098.00
2023-04-14T09:04:10.153Z,1072.00
2023-04-14T09:04:19.965Z,1066.00
2023-04-14T09:04:29.933Z,1081.00
2023-04-14T09:04:40.007Z,1050.00
2023-04-14T09:04:50.227Z,1079.00
2023-04-14T09:05:00.226Z,1112.00
2023-04-14T09:05:10.270Z,1071.00
2023-04-14T09:05:20.343Z,1068.00
2023-04-14T09:05:30.408Z,1063.00
2023-04-14T09:05:40.464Z,1054.00
2023-04-14T09:05:50.530Z,1049.00
2023-04-14T09:06:00.626Z,1029.00
2023-04-14T09:06:10.695Z,1013.00
2023-04-14T09:06:20.749Z,1002.00
2023-04-14T09:06:30.922Z,995.00
2023-04-14T09:06:40.849Z,988.00
2023-04-14T09:06:50.890Z,1006.00
2023-04-14T09:07:00.940Z,971.00
2023-04-14T09:07:10.998Z,968.00
2023-04-14T09:07:21.056Z,971.00
2023-04-14T09:07:31.108Z,954.00
2023-04-14T09:07:41.173Z,945.00
2023-04-14T09:07:51.242Z,951.00
2023-04-14T09:08:01.285Z,945.00
2023-04-14T09:08:11.368Z,955.00
2023-04-14T09:08:21.406Z,962.00
2023-04-14T09:08:31.524Z,966.00
2023-04-14T09:08:41.570Z,969.00
2023-04-14T09:08:51.611Z,970.00
2023-04-14T09:09:01.695Z,967.00
2023-04-14T09:09:11.766Z,971.00
2023-04-14T09:09:21.894Z,967.00
2023-04-14T09:09:31.985Z,962.00
2023-04-14T09:09:42.081Z,966.00
2023-04-14T09:09:52.112Z,979.00
2023-04-14T09:10:02.195Z,951.00
2023-04-14T09:10:12.219Z,948.00
2023-04-14T09:10:22.392Z,980.00
2023-04-14T09:10:32.446Z,956.00
2023-04-14T09:10:42.491Z,951.00
2023-04-14T09:10:52.562Z,985.00
2023-04-14T09:11:02.624Z,958.00
2023-04-14T09:11:12.625Z,962.00
2023-04-14T09:11:22.719Z,979.00
2023-04-14T09:11:32.752Z,985.00
2023-04-14T09:11:42.803Z,1004.00
2023-04-14T09:11:52.900Z,1019.00
2023-04-14T09:12:02.915Z,1033.00
2023-04-14T09:12:12.985Z,1041.00
2023-04-14T09:12:23.053Z,1051.00
2023-04-14T09:12:33.082Z,1058.00
2023-04-14T09:12:43.052Z,1120.00
2023-04-14T09:12:53.041Z,1078.00
2023-04-14T09:13:03.121Z,1090.00
2023-04-14T09:13:13.174Z,1078.00
2023-04-14T09:13:23.354Z,1079.00
2023-04-14T09:13:33.378Z,1087.00
2023-04-14T09:13:43.486Z,1090.00
2023-04-14T09:13:53.549Z,1094.00
2023-04-14T09:14:04.016Z,1091.00
2023-04-14T09:14:13.713Z,1088.00
2023-04-14T09:14:23.783Z,1089.00
2023-04-14T09:14:33.877Z,1101.00
2023-04-14T09:14:43.934Z,1108.00
2023-04-14T09:14:54.007Z,1115.00
2023-04-14T09:15:04.099Z,1130.00
2023-04-14T09:15:14.160Z,1128.00
2023-04-14T09:15:24.206Z,1129.00
2023-04-14T09:15:34.283Z,1126.00
2023-04-14T09:15:44.333Z,1121.00
2023-04-14T09:15:54.454Z,1108.00
2023-04-14T09:16:04.510Z,1111.00
2023-04-14T09:16:14.614Z,1121.00
2023-04-14T09:16:24.683Z,1098.00
2023-04-14T09:16:34.717Z,1088.00
2023-04-14T09:16:44.783Z,1077.00
2023-04-14T09:16:54.885Z,1061.00
2023-04-14T09:17:05.016Z,1022.00
2023-04-14T09:17:15.030Z,1039.00
2023-04-14T09:17:25.211Z,997.00
2023-04-14T09:17:35.145Z,984.00
2023-04-14T09:17:45.255Z,979.00
2023-04-14T09:17:55.365Z,978.00
2023-04-14T09:18:05.402Z,959.00
2023-04-14T09:18:15.460Z,994.00
2023-04-14T09:18:25.594Z,981.00
2023-04-14T09:18:36.639Z,971.00
2023-04-14T09:18:47.416Z,893.00
2023-04-14T09:18:55.767Z,878.00
2023-04-14T09:19:06.873Z,866.00
2023-04-14T09:19:16.112Z,865.00
2023-04-14T09:19:26.197Z,857.00
2023-04-14T09:19:36.311Z,866.00
2023-04-14T09:20:34.966Z,852.00
2023-04-14T09:20:36.616Z,832.00
2023-04-14T09:20:36.756Z,864.00
2023-04-14T09:20:38.444Z,816.00
2023-04-14T09:20:39.019Z,869.00
2023-04-14T09:20:42.416Z,796.00
2023-04-14T09:21:32.911Z,741.00
2023-04-14T09:21:49.017Z,753.00
2023-04-14T09:21:49.639Z,742.00
2023-04-14T09:21:50.896Z,766.00
2023-04-14T09:21:53.589Z,697.00
2023-04-14T09:21:53.997Z,728.00
2023-04-14T09:21:57.805Z,665.00
2023-04-14T09:22:07.837Z,621.00
2023-04-14T09:22:17.904Z,644.00
2023-04-14T09:22:27.993Z,641.00
2023-04-14T09:22:38.065Z,642.00
2023-04-14T09:22:48.031Z,667.00
2023-04-14T09:22:58.187Z,664.00
2023-04-14T09:23:08.294Z,701.00
2023-04-14T09:23:18.424Z,741.00
2023-04-14T09:23:28.523Z,737.00
2023-04-14T09:23:38.603Z,716.00
2023-04-14T09:23:48.704Z,733.00
2023-04-14T09:23:58.891Z,771.00
2023-04-14T09:24:11.063Z,799.00
2023-04-14T09:24:18.984Z,792.00
2023-04-14T09:24:31.235Z,793.00
2023-04-14T09:24:39.239Z,758.00
2023-04-14T09:24:49.358Z,762.00
2023-04-14T09:24:59.443Z,758.00
2023-04-14T09:25:09.575Z,747.00
2023-04-14T09:25:19.543Z,772.00
2023-04-14T09:25:29.667Z,744.00
2023-04-14T09:25:39.688Z,755.00
2023-04-14T09:25:49.805Z,726.00
2023-04-14T09:25:59.916Z,734.00
2023-04-14T09:26:10.083Z,766.00
2023-04-14T09:26:20.184Z,808.00
2023-04-14T09:26:30.323Z,825.00
2023-04-14T09:26:40.408Z,827.00
2023-04-14T09:26:50.474Z,839.00
2023-04-14T09:27:00.530Z,900.00
2023-04-14T09:27:10.647Z,898.00
2023-04-14T09:27:20.710Z,898.00
2023-04-14T09:27:30.805Z,897.00
2023-04-14T09:27:40.868Z,912.00
2023-04-14T09:27:50.984Z,912.00
2023-04-14T09:28:01.043Z,899.00
2023-04-14T09:28:11.152Z,902.00
2023-04-14T09:28:21.650Z,837.00
2023-04-14T09:28:31.463Z,859.00
2023-04-14T09:28:41.333Z,832.00
2023-04-14T09:28:51.450Z,732.00
2023-04-14T09:29:01.642Z,754.00
2023-04-14T09:29:11.625Z,668.00
2023-04-14T09:29:21.693Z,657.00
2023-04-14T09:29:31.800Z,651.00
2023-04-14T09:29:41.861Z,651.00
2023-04-14T09:29:51.926Z,628.00
2023-04-14T09:30:02.000Z,574.00
2023-04-14T09:30:12.072Z,592.00
2023-04-14T09:30:22.138Z,568.00
2023-04-14T09:30:32.224Z,551.00
2023-04-14T09:30:42.315Z,547.00
2023-04-14T09:30:52.357Z,539.00
2023-04-14T09:31:02.493Z,534.00
2023-04-14T09:31:12.596Z,521.00
2023-04-14T09:31:22.687Z,547.00
2023-04-14T09:31:32.754Z,513.00
2023-04-14T09:31:42.846Z,513.00
2023-04-14T09:31:52.870Z,548.00
2023-04-14T09:32:02.886Z,542.00
2023-04-14T09:32:12.920Z,567.00
2023-04-14T09:32:23.014Z,584.00
2023-04-14T09:32:33.195Z,579.00
2023-04-14T09:32:43.300Z,578.00
2023-04-14T09:32:53.511Z,586.00
2023-04-14T09:33:03.477Z,596.00
2023-04-14T09:33:13.590Z,566.00
2023-04-14T09:33:23.642Z,584.00
2023-04-14T09:33:33.699Z,596.00
2023-04-14T09:33:43.817Z,589.00
2023-04-14T09:33:53.871Z,584.00
2023-04-14T09:34:04.251Z,576.00
2023-04-14T09:34:13.981Z,558.00
2023-04-14T09:34:24.202Z,621.00
2023-04-14T09:34:34.097Z,623.00
2023-04-14T09:34:44.149Z,628.00
2023-04-14T09:34:56.530Z,620.00
2023-04-14T09:35:04.373Z,629.00
2023-04-14T09:35:14.454Z,617.00
2023-04-14T09:35:24.523Z,642.00
2023-04-14T09:35:34.589Z,643.00
2023-04-14T09:35:44.648Z,637.00
2023-04-14T09:35:54.715Z,651.00
2023-04-14T09:36:04.838Z,696.00
2023-04-14T09:36:14.891Z,714.00
2023-04-14T09:36:24.954Z,742.00
2023-04-14T09:36:35.039Z,789.00
2023-04-14T09:36:45.135Z,812.00
2023-04-14T09:36:55.175Z,828.00
2023-04-14T09:37:05.254Z,859.00
2023-04-14T09:37:15.310Z,873.00
2023-04-14T09:37:25.376Z,887.00
2023-04-14T09:37:36.536Z,949.00
2023-04-14T09:37:45.602Z,983.00
2023-04-14T09:37:55.680Z,961.00
2023-04-14T09:38:05.744Z,977.00
2023-04-14T09:38:15.861Z,988.00
2023-04-14T09:38:25.950Z,1009.00
2023-04-14T09:38:46.069Z,1018.00
2023-04-14T09:38:56.175Z,1017.00
2023-04-14T09:39:06.233Z,1056.00
2023-04-14T09:39:16.296Z,1075.00
2023-04-14T09:39:26.362Z,1078.00
2023-04-14T09:39:36.388Z,1138.00
2023-04-14T09:39:46.388Z,1127.00
2023-04-14T09:39:56.506Z,1128.00
2023-04-14T09:40:06.578Z,1142.00
2023-04-14T09:40:16.674Z,1154.00
2023-04-14T09:40:26.762Z,1154.00
2023-04-14T09:40:36.829Z,1143.00
2023-04-14T09:40:46.925Z,1142.00
2023-04-14T09:40:57.162Z,1140.00
2023-04-14T09:41:07.136Z,1150.00
2023-04-14T09:41:17.201Z,1140.00
2023-04-14T09:41:27.276Z,1140.00
2023-04-14T09:41:37.364Z,1133.00
2023-04-14T09:41:47.425Z,1143.00
2023-04-14T09:41:57.485Z,1136.00
2023-04-14T09:42:07.543Z,1131.00
2023-04-14T09:42:17.606Z,1139.00
2023-04-14T09:42:27.760Z,1158.00
2023-04-14T09:42:37.661Z,1136.00
2023-04-14T09:42:47.833Z,1148.00
2023-04-14T09:42:57.736Z,1202.00
2023-04-14T09:43:07.800Z,1146.00
2023-04-14T09:43:17.888Z,1175.00
2023-04-14T09:43:28.007Z,1132.00
2023-04-14T09:43:37.993Z,1132.00
2023-04-14T09:43:48.072Z,1154.00
2023-04-14T09:43:58.160Z,1133.00
2023-04-14T09:44:08.235Z,1149.00
2023-04-14T09:44:18.308Z,1188.00
2023-04-14T09:44:28.446Z,1150.00
2023-04-14T09:44:38.500Z,1136.00
2023-04-14T09:44:48.557Z,1128.00
2023-04-14T09:44:58.619Z,1129.00
2023-04-14T09:45:08.710Z,1128.00
2023-04-14T09:45:18.783Z,1126.00
2023-04-14T09:45:28.847Z,1124.00
2023-04-14T09:45:38.998Z,1116.00
2023-04-14T09:45:49.096Z,1130.00
2023-04-14T09:45:59.179Z,1155.00
2023-04-14T09:46:09.405Z,1142.00
2023-04-14T09:46:19.386Z,1145.00
2023-04-14T09:46:29.515Z,1135.00
2023-04-14T09:46:39.752Z,1142.00
2023-04-14T09:46:49.584Z,1109.00
2023-04-14T09:46:59.669Z,1105.00
2023-04-14T09:47:09.719Z,1100.00
2023-04-14T09:47:19.886Z,1090.00
2023-04-14T09:47:30.024Z,1086.00
2023-04-14T09:47:40.053Z,1090.00
2023-04-14T09:47:50.295Z,1118.00
2023-04-14T09:48:00.313Z,1135.00
2023-04-14T09:48:10.675Z,1112.00
2023-04-14T09:48:20.702Z,1135.00
2023-04-14T09:48:30.652Z,1102.00
2023-04-14T09:48:40.717Z,1114.00
2023-04-14T09:48:50.829Z,1104.00
2023-04-14T09:49:00.947Z,1101.00
2023-04-14T09:49:11.017Z,1110.00
2023-04-14T09:49:21.120Z,1096.00
2023-04-14T09:49:31.206Z,1095.00
2023-04-14T09:49:41.332Z,1089.00
2023-04-14T09:49:51.380Z,1077.00
2023-04-14T09:50:01.456Z,1063.00
2023-04-14T09:50:11.527Z,1065.00
2023-04-14T09:50:21.594Z,1064.00
2023-04-14T09:50:31.667Z,1057.00
2023-04-14T09:50:41.676Z,1042.00
2023-04-14T09:50:51.724Z,1065.00
2023-04-14T09:51:01.828Z,1019.00
2023-04-14T09:51:11.882Z,1007.00
2023-04-14T09:51:21.946Z,999.00
2023-04-14T09:51:32.018Z,1000.00
2023-04-14T09:51:42.113Z,1024.00
2023-04-14T09:51:52.177Z,1003.00
2023-04-14T09:52:02.258Z,1011.00
2023-04-14T09:52:12.319Z,1044.00
2023-04-14T09:52:22.479Z,1062.00
2023-04-14T09:52:32.419Z,1072.00
2023-04-14T09:52:42.512Z,1092.00
2023-04-14T09:52:52.571Z,1073.00
2023-04-14T09:53:02.630Z,1072.00
2023-04-14T09:53:12.742Z,1054.00
2023-04-14T09:53:22.808Z,1030.00
2023-04-14T09:53:32.866Z,1050.00
2023-04-14T09:53:42.962Z,1069.00
2023-04-14T09:53:53.074Z,1079.00
2023-04-14T09:54:03.478Z,1081.00
2023-04-14T09:54:13.284Z,1034.00
2023-04-14T09:54:23.408Z,1087.00
2023-04-14T09:54:33.523Z,1100.00
2023-04-14T09:54:43.593Z,1086.00
2023-04-14T09:54:53.698Z,1075.00
2023-04-14T09:55:03.807Z,1068.00
2023-04-14T09:55:13.976Z,1043.00
2023-04-14T09:55:23.911Z,1012.00
2023-04-14T09:55:33.997Z,1003.00
2023-04-14T09:55:44.130Z,1000.00
2023-04-14T09:55:54.088Z,979.00
2023-04-14T09:56:04.195Z,978.00
2023-04-14T09:56:14.261Z,985.00
2023-04-14T09:56:24.364Z,981.00
2023-04-14T09:56:34.459Z,970.00
2023-04-14T09:56:44.536Z,977.00
2023-04-14T09:56:54.607Z,954.00
2023-04-14T09:57:04.669Z,964.00
2023-04-14T09:57:14.771Z,991.00
2023-04-14T09:57:24.863Z,978.00
2023-04-14T09:57:34.928Z,937.00
2023-04-14T09:57:44.996Z,915.00
2023-04-14T09:57:55.062Z,880.00
2023-04-14T09:58:05.134Z,876.00
2023-04-14T09:58:15.178Z,882.00
2023-04-14T09:58:27.239Z,872.00
2023-04-14T09:58:35.376Z,844.00
2023-04-14T09:58:45.436Z,868.00
2023-04-14T09:58:55.470Z,871.00
2023-04-14T09:59:05.878Z,869.00
2023-04-14T09:59:15.707Z,859.00
2023-04-14T09:59:25.769Z,813.00
2023-04-14T09:59:35.822Z,810.00
2023-04-14T09:59:45.889Z,813.00
2023-04-14T09:59:55.987Z,814.00
2023-04-14T10:00:06.046Z,816.00
2023-04-14T10:00:16.126Z,819.00
2023-04-14T10:00:26.105Z,894.00
2023-04-14T10:00:36.226Z,867.00
2023-04-14T10:00:46.315Z,877.00
2023-04-14T10:00:56.399Z,934.00
2023-04-14T10:01:06.431Z,962.00
2023-04-14T10:01:16.580Z,975.00
2023-04-14T10:01:26.676Z,970.00
2023-04-14T10:01:36.764Z,984.00
2023-04-14T10:01:46.787Z,991.00
2023-04-14T10:01:56.991Z,980.00
2023-04-14T10:02:07.004Z,931.00